createdAt,value
2018-12-31T00:04:43.718Z,15.50
2018-12-31T00:10:06.485Z,15.83
2018-12-31T00:15:29.249Z,17.60
2018-12-31T00:20:45.274Z,16.60
2018-12-31T00:26:01.626Z,21.93
2018-12-31T00:31:17.209Z,21.47
2018-12-31T00:36:32.591Z,22.63
2018-12-31T00:41:47.933Z,20.97
2018-12-31T00:47:03.578Z,21.83
2018-12-31T00:52:18.908Z,22.50
2018-12-31T00:57:34.915Z,26.97
2018-12-31T01:02:50.756Z,28.77
2018-12-31T01:08:06.041Z,29.27
2018-12-31T01:13:21.613Z,29.93
2018-12-31T01:18:37.006Z,24.27
2018-12-31T01:23:52.657Z,25.93
2018-12-31T01:29:08.858Z,24.97
2018-12-31T01:34:25.098Z,28.03
2018-12-31T01:39:40.509Z,29.03
2018-12-31T01:44:56.005Z,27.33
2018-12-31T01:50:11.849Z,23.50
2018-12-31T01:55:28.006Z,28.37
2018-12-31T02:00:43.170Z,27.27
2018-12-31T02:05:58.932Z,24.00
2018-12-31T02:11:14.673Z,26.97
2018-12-31T02:16:29.962Z,28.87
2018-12-31T02:21:45.778Z,32.27
2018-12-31T02:27:01.841Z,33.77
2018-12-31T02:32:17.363Z,29.57
2018-12-31T02:37:33.117Z,33.63
2018-12-31T02:42:49.134Z,27.90
2018-12-31T02:48:04.869Z,24.83
2018-12-31T02:53:20.393Z,25.07
2018-12-31T02:58:36.173Z,26.13
2018-12-31T03:03:51.713Z,28.37
2018-12-31T03:09:07.642Z,34.53
2018-12-31T03:14:11.068Z,33.50
2018-12-31T03:19:33.835Z,27.57
2018-12-31T03:24:48.994Z,28.30
2018-12-31T03:30:04.782Z,31.07
2018-12-31T03:35:20.601Z,26.10
2018-12-31T03:40:36.190Z,27.07
2018-12-31T03:45:52.582Z,29.20
2018-12-31T03:51:08.290Z,28.27
2018-12-31T03:56:24.590Z,25.47
2018-12-31T04:01:40.010Z,24.73
2018-12-31T04:06:55.721Z,26.40
2018-12-31T04:11:59.965Z,37.20
2018-12-31T04:17:22.730Z,41.50
2018-12-31T04:22:38.173Z,47.80
2018-12-31T04:27:54.171Z,53.87
2018-12-31T04:33:09.934Z,54.00
2018-12-31T04:38:25.682Z,73.10
2018-12-31T04:43:41.217Z,82.00
2018-12-31T04:48:56.658Z,104.13
2018-12-31T04:54:12.876Z,126.27
2018-12-31T04:59:28.674Z,69.17
2018-12-31T05:04:44.060Z,82.30
2018-12-31T05:09:59.378Z,86.37
2018-12-31T05:15:15.245Z,104.87
2018-12-31T05:20:31.533Z,171.73
2018-12-31T05:25:47.181Z,96.20
2018-12-31T05:31:02.394Z,159.30
2018-12-31T05:36:18.211Z,160.67
2018-12-31T05:41:33.834Z,161.67
2018-12-31T05:46:49.401Z,123.07
2018-12-31T05:52:04.700Z,113.83
2018-12-31T05:57:20.309Z,82.00
2018-12-31T06:02:35.554Z,89.90
2018-12-31T06:07:51.474Z,86.97
2018-12-31T06:13:06.968Z,81.63
2018-12-31T06:18:22.695Z,62.07
2018-12-31T06:23:38.685Z,67.93
2018-12-31T06:28:54.257Z,66.87
2018-12-31T06:34:09.425Z,54.33
2018-12-31T06:39:25.371Z,50.43
2018-12-31T06:44:41.026Z,55.40
2018-12-31T06:49:57.148Z,58.17
2018-12-31T06:55:12.973Z,50.17
2018-12-31T07:00:28.929Z,50.20
2018-12-31T07:05:45.297Z,49.67
2018-12-31T07:11:01.245Z,48.40
2018-12-31T07:16:17.356Z,42.60
2018-12-31T07:21:32.815Z,47.17
2018-12-31T07:26:49.373Z,49.17
2018-12-31T07:32:05.229Z,41.40
2018-12-31T07:37:20.773Z,47.33
2018-12-31T07:42:36.245Z,48.67
2018-12-31T07:47:51.602Z,44.50
2018-12-31T07:53:06.990Z,47.33
2018-12-31T07:58:22.821Z,42.17
2018-12-31T08:03:38.537Z,46.20
2018-12-31T08:08:54.645Z,41.77
2018-12-31T08:14:10.287Z,38.97
2018-12-31T08:19:25.638Z,39.67
2018-12-31T08:24:41.045Z,35.67
2018-12-31T08:29:57.110Z,32.10
2018-12-31T08:35:00.545Z,37.53
2018-12-31T08:40:23.321Z,35.87
2018-12-31T08:45:46.146Z,31.63
2018-12-31T08:51:09.214Z,29.87
2018-12-31T08:56:32.062Z,34.40
2018-12-31T09:01:55.107Z,35.43
2018-12-31T09:07:18.140Z,39.37
2018-12-31T09:12:41.157Z,40.13
2018-12-31T09:18:04.175Z,42.77
2018-12-31T09:23:19.832Z,32.13
2018-12-31T09:28:37.520Z,32.50
2018-12-31T09:33:54.864Z,36.90
2018-12-31T09:39:10.859Z,34.80
2018-12-31T09:44:27.118Z,34.67
2018-12-31T09:49:43.458Z,37.80
2018-12-31T09:54:59.294Z,37.27
2018-12-31T10:00:15.027Z,39.93
2018-12-31T10:05:32.424Z,42.57
2018-12-31T10:10:48.361Z,43.50
2018-12-31T10:16:03.762Z,38.90
2018-12-31T10:21:19.447Z,41.67
2018-12-31T10:26:35.170Z,46.50
2018-12-31T10:31:50.748Z,44.13
2018-12-31T10:37:06.555Z,43.37
2018-12-31T10:42:23.932Z,40.77
2018-12-31T10:47:39.675Z,39.00
2018-12-31T10:52:57.155Z,41.97
2018-12-31T10:58:13.538Z,39.77
2018-12-31T11:03:29.381Z,35.87
2018-12-31T11:08:46.039Z,35.73
2018-12-31T11:14:01.513Z,46.07
2018-12-31T11:19:20.581Z,32.80
2018-12-31T11:24:36.671Z,31.63
2018-12-31T11:29:52.441Z,34.53
2018-12-31T11:35:08.577Z,34.07
2018-12-31T11:40:24.391Z,32.23
2018-12-31T11:45:39.703Z,31.73
2018-12-31T11:56:16.689Z,31.30
2018-12-31T12:01:32.349Z,35.37
2018-12-31T12:06:51.092Z,27.37
2018-12-31T12:12:06.055Z,31.73
2018-12-31T12:17:21.695Z,32.77
2018-12-31T12:22:37.282Z,36.03
2018-12-31T12:27:52.729Z,38.37
2018-12-31T12:33:08.228Z,28.63
2018-12-31T12:38:24.154Z,40.37
2018-12-31T12:43:40.188Z,32.70
2018-12-31T12:48:56.317Z,35.73
2018-12-31T12:54:12.232Z,35.93
2018-12-31T13:04:48.570Z,38.27
2018-12-31T13:10:04.659Z,40.10
2018-12-31T13:15:21.012Z,32.47
2018-12-31T13:20:36.607Z,30.17
2018-12-31T13:25:52.638Z,41.73
2018-12-31T13:31:08.694Z,37.60
2018-12-31T13:36:25.185Z,43.87
2018-12-31T13:41:40.839Z,40.77
2018-12-31T13:47:00.098Z,37.47
2018-12-31T13:52:15.472Z,41.43
2018-12-31T13:57:31.029Z,42.53
2018-12-31T14:02:46.795Z,41.53
2018-12-31T14:08:02.528Z,37.83
2018-12-31T14:13:19.001Z,36.73
2018-12-31T14:18:34.407Z,37.70
2018-12-31T14:23:50.498Z,40.30
2018-12-31T14:29:05.998Z,39.67
2018-12-31T14:34:21.569Z,45.40
2018-12-31T14:39:37.370Z,45.70
2018-12-31T14:44:53.049Z,48.30
2018-12-31T14:49:56.506Z,47.90
2018-12-31T14:55:19.362Z,42.43
2018-12-31T15:00:42.185Z,44.67
2018-12-31T15:06:05.012Z,42.97
2018-12-31T15:11:28.192Z,42.63
2018-12-31T15:16:52.680Z,39.67
2018-12-31T15:22:10.352Z,43.80
2018-12-31T15:27:26.070Z,40.13
2018-12-31T15:32:45.053Z,35.80
2018-12-31T15:38:00.950Z,32.77
2018-12-31T15:43:16.306Z,36.67
2018-12-31T15:48:31.606Z,34.63
2018-12-31T15:53:47.310Z,34.73
2018-12-31T15:59:03.061Z,32.00
2018-12-31T16:04:18.765Z,36.60
2018-12-31T16:09:34.253Z,38.43
2018-12-31T16:14:50.385Z,39.27
2018-12-31T16:20:06.142Z,37.13
2018-12-31T16:25:23.595Z,40.27
2018-12-31T16:30:39.462Z,46.83
2018-12-31T16:35:54.661Z,45.83
2018-12-31T16:41:10.080Z,41.43
2018-12-31T16:46:26.230Z,48.23
2018-12-31T16:51:42.137Z,46.73
2018-12-31T16:56:58.041Z,41.60
2018-12-31T17:02:13.647Z,43.00
2018-12-31T17:07:29.822Z,40.83
2018-12-31T17:12:45.493Z,43.87
2018-12-31T17:18:01.142Z,41.73
2018-12-31T17:23:16.689Z,42.60
2018-12-31T17:28:32.677Z,54.87
2018-12-31T17:33:47.870Z,38.40
2018-12-31T17:39:04.025Z,43.90
2018-12-31T17:44:19.628Z,46.23
2018-12-31T17:49:35.340Z,46.90
2018-12-31T17:54:51.511Z,49.13
2018-12-31T18:00:07.026Z,45.50
2018-12-31T18:05:22.891Z,52.90
2018-12-31T18:10:38.798Z,55.83
2018-12-31T18:15:54.509Z,49.73
2018-12-31T18:21:10.658Z,47.53
2018-12-31T18:26:25.949Z,47.77
2018-12-31T18:31:41.777Z,46.87
2018-12-31T18:36:57.280Z,46.70
2018-12-31T18:42:13.057Z,49.77
2018-12-31T18:47:29.145Z,43.30
2018-12-31T18:52:45.114Z,44.30
2018-12-31T18:58:01.032Z,40.87
2018-12-31T19:03:16.170Z,44.17
2018-12-31T19:08:33.283Z,43.20
2018-12-31T19:13:49.796Z,40.50
2018-12-31T19:19:05.642Z,38.30
2018-12-31T19:24:21.586Z,39.73
2018-12-31T19:29:37.158Z,34.33
2018-12-31T19:34:52.749Z,30.83
2018-12-31T19:40:08.452Z,29.23
2018-12-31T19:45:24.863Z,32.30
2018-12-31T19:50:40.783Z,32.77
2018-12-31T19:55:57.046Z,31.60
2018-12-31T20:01:12.775Z,30.30
2018-12-31T20:06:16.384Z,29.27
2018-12-31T20:11:39.406Z,27.33
2018-12-31T20:17:02.434Z,26.57
2018-12-31T20:22:18.097Z,25.33
2018-12-31T20:27:33.522Z,24.57
2018-12-31T20:32:48.983Z,26.50
2018-12-31T20:38:04.991Z,39.60
2018-12-31T20:43:20.233Z,49.33
2018-12-31T20:48:36.759Z,32.20
2018-12-31T20:53:53.031Z,30.97
2018-12-31T20:59:08.446Z,33.43
2018-12-31T21:04:23.839Z,38.87
2018-12-31T21:09:39.609Z,37.20
2018-12-31T21:14:55.393Z,35.53
2018-12-31T21:20:10.757Z,39.77
2018-12-31T21:25:27.321Z,42.33
2018-12-31T21:30:43.159Z,41.10
2018-12-31T21:35:58.994Z,40.03
2018-12-31T21:41:15.259Z,40.73
2018-12-31T21:46:31.065Z,34.53
2018-12-31T21:51:47.521Z,37.87
2018-12-31T21:56:51.086Z,36.30
2018-12-31T22:02:14.257Z,42.60
2018-12-31T22:07:37.028Z,35.87
2018-12-31T22:18:28.196Z,39.87
2018-12-31T22:23:43.574Z,36.10
2018-12-31T22:28:59.231Z,41.13
2018-12-31T22:34:15.160Z,41.40
2018-12-31T22:45:05.069Z,40.13
2018-12-31T22:50:20.633Z,50.60
2018-12-31T22:55:36.223Z,54.10
2018-12-31T23:00:53.025Z,53.40
2018-12-31T23:06:08.503Z,130.60
2018-12-31T23:11:23.999Z,434.13
2018-12-31T23:16:39.742Z,483.67
2018-12-31T23:21:55.186Z,466.33
2018-12-31T23:27:10.496Z,305.93
2018-12-31T23:32:14.182Z,335.87
2018-12-31T23:37:37.428Z,227.67
2018-12-31T23:43:06.318Z,245.27
2018-12-31T23:48:25.188Z,216.07
2018-12-31T23:53:47.970Z,142.03
2018-12-31T23:59:10.990Z,128.57
